sensor_id;sensor_type;location;lat;lon;timestamp;pressure;altitude;pressure_sealevel;temperature;humidity
21300;BME280;10809;49.476;11.016;2024-03-02T00:00:11;97212.72;;;7.23;61.99
21300;BME280;10809;49.476;11.016;2024-03-02T00:02:44;97213.66;;;7.22;62.04
21300;BME280;10809;49.476;11.016;2024-03-02T00:05:17;97209.25;;;7.23;62.07
21300;BME280;10809;49.476;11.016;2024-03-02T00:07:56;97207.47;;;7.23;62.08
21300;BME280;10809;49.476;11.016;2024-03-02T00:10:35;97206.59;;;7.23;62.28
21300;BME280;10809;49.476;11.016;2024-03-02T00:13:08;97206.59;;;7.23;62.42
21300;BME280;10809;49.476;11.016;2024-03-02T00:15:52;97205.66;;;7.24;62.21
21300;BME280;10809;49.476;11.016;2024-03-02T00:20:57;97203.03;;;7.24;62.55
21300;BME280;10809;49.476;11.016;2024-03-02T00:23:30;97208.19;;;7.25;62.44
21300;BME280;10809;49.476;11.016;2024-03-02T00:26:01;97211.69;;;7.26;62.60
21300;BME280;10809;49.476;11.016;2024-03-02T00:28:36;97209.91;;;7.26;62.73
21300;BME280;10809;49.476;11.016;2024-03-02T00:31:10;97205.56;;;7.25;62.58
21300;BME280;10809;49.476;11.016;2024-03-02T00:33:49;97207.28;;;7.26;62.55
21300;BME280;10809;49.476;11.016;2024-03-02T00:36:25;97202.94;;;7.25;62.79
21300;BME280;10809;49.476;11.016;2024-03-02T00:38:57;97209.91;;;7.26;62.64
21300;BME280;10809;49.476;11.016;2024-03-02T00:41:29;97206.41;;;7.26;62.58
21300;BME280;10809;49.476;11.016;2024-03-02T00:44:05;97205.50;;;7.27;62.69
21300;BME280;10809;49.476;11.016;2024-03-02T00:46:40;97206.41;;;7.26;62.73
21300;BME280;10809;49.476;11.016;2024-03-02T00:49:18;97211.59;;;7.27;62.86
21300;BME280;10809;49.476;11.016;2024-03-02T00:51:52;97209.91;;;7.26;62.88
21300;BME280;10809;49.476;11.016;2024-03-02T00:54:25;97216.84;;;7.27;62.74
21300;BME280;10809;49.476;11.016;2024-03-02T00:56:57;97211.69;;;7.26;62.90
21300;BME280;10809;49.476;11.016;2024-03-02T00:59:27;97210.00;;;7.25;63.07
21300;BME280;10809;49.476;11.016;2024-03-02T01:01:57;97215.28;;;7.25;62.73
21300;BME280;10809;49.476;11.016;2024-03-02T01:04:28;97215.34;;;7.23;62.94
21300;BME280;10809;49.476;11.016;2024-03-02T01:06:58;97216.19;;;7.24;62.73
21300;BME280;10809;49.476;11.016;2024-03-02T01:09:29;97220.63;;;7.23;62.69
21300;BME280;10809;49.476;11.016;2024-03-02T01:11:59;97211.00;;;7.22;62.83
21300;BME280;10809;49.476;11.016;2024-03-02T01:14:30;97218.09;;;7.22;62.80
21300;BME280;10809;49.476;11.016;2024-03-02T01:17:00;97217.22;;;7.21;62.83
21300;BME280;10809;49.476;11.016;2024-03-02T01:19:34;97217.22;;;7.21;62.86
21300;BME280;10809;49.476;11.016;2024-03-02T01:22:04;97219.00;;;7.21;62.73
21300;BME280;10809;49.476;11.016;2024-03-02T01:24:35;97218.28;;;7.19;62.71
21300;BME280;10809;49.476;11.016;2024-03-02T01:27:05;97217.41;;;7.18;62.90
21300;BME280;10809;49.476;11.016;2024-03-02T01:29:36;97212.25;;;7.17;62.70
21300;BME280;10809;49.476;11.016;2024-03-02T01:32:06;97212.31;;;7.15;62.74
21300;BME280;10809;49.476;11.016;2024-03-02T01:34:36;97208.00;;;7.14;62.87
21300;BME280;10809;49.476;11.016;2024-03-02T01:37:07;97211.56;;;7.13;62.71
21300;BME280;10809;49.476;11.016;2024-03-02T01:39:37;97215.16;;;7.12;62.96
21300;BME280;10809;49.476;11.016;2024-03-02T01:42:08;97210.81;;;7.11;62.96
21300;BME280;10809;49.476;11.016;2024-03-02T01:44:40;97212.69;;;7.09;62.88
21300;BME280;10809;49.476;11.016;2024-03-02T01:47:10;97218.91;;;7.08;62.98
21300;BME280;10809;49.476;11.016;2024-03-02T01:49:40;97218.09;;;7.06;62.88
21300;BME280;10809;49.476;11.016;2024-03-02T01:52:11;97214.72;;;7.04;63.30
21300;BME280;10809;49.476;11.016;2024-03-02T01:54:41;97218.28;;;7.03;63.02
21300;BME280;10809;49.476;11.016;2024-03-02T01:57:12;97216.59;;;7.02;63.04
21300;BME280;10809;49.476;11.016;2024-03-02T01:59:46;97222.88;;;7.00;63.03
21300;BME280;10809;49.476;11.016;2024-03-02T02:02:18;97220.34;;;6.98;62.91
21300;BME280;10809;49.476;11.016;2024-03-02T02:04:48;97215.16;;;6.97;63.15
21300;BME280;10809;49.476;11.016;2024-03-02T02:07:19;97220.50;;;6.95;63.12
21300;BME280;10809;49.476;11.016;2024-03-02T02:09:49;97216.19;;;6.94;62.98
21300;BME280;10809;49.476;11.016;2024-03-02T02:12:23;97216.28;;;6.93;63.16
21300;BME280;10809;49.476;11.016;2024-03-02T02:14:53;97211.03;;;6.93;63.18
21300;BME280;10809;49.476;11.016;2024-03-02T02:17:24;97213.75;;;6.91;63.12
21300;BME280;10809;49.476;11.016;2024-03-02T02:19:54;97211.13;;;6.91;63.34
21300;BME280;10809;49.476;11.016;2024-03-02T02:22:25;97216.47;;;6.90;63.15
21300;BME280;10809;49.476;11.016;2024-03-02T02:24:55;97215.69;;;6.88;63.23
21300;BME280;10809;49.476;11.016;2024-03-02T02:27:25;97219.19;;;6.88;63.33
21300;BME280;10809;49.476;11.016;2024-03-02T02:29:56;97214.88;;;6.87;63.21
21300;BME280;10809;49.476;11.016;2024-03-02T02:32:26;97220.13;;;6.87;63.33
21300;BME280;10809;49.476;11.016;2024-03-02T02:34:57;97224.53;;;6.87;63.49
21300;BME280;10809;49.476;11.016;2024-03-02T02:37:27;97214.97;;;6.86;63.30
21300;BME280;10809;49.476;11.016;2024-03-02T02:39:58;97219.38;;;6.85;63.38
21300;BME280;10809;49.476;11.016;2024-03-02T02:42:28;97226.41;;;6.85;63.79
21300;BME280;10809;49.476;11.016;2024-03-02T02:44:58;97224.63;;;6.85;63.52
21300;BME280;10809;49.476;11.016;2024-03-02T02:47:29;97222.94;;;6.84;63.52
21300;BME280;10809;49.476;11.016;2024-03-02T02:50:00;97229.88;;;6.85;63.50
21300;BME280;10809;49.476;11.016;2024-03-02T02:52:31;97224.63;;;6.85;63.43
21300;BME280;10809;49.476;11.016;2024-03-02T02:55:10;97221.06;;;6.86;63.57
21300;BME280;10809;49.476;11.016;2024-03-02T02:57:42;97214.09;;;6.85;63.70
21300;BME280;10809;49.476;11.016;2024-03-02T03:00:14;97214.97;;;6.86;63.68
21300;BME280;10809;49.476;11.016;2024-03-02T03:02:47;97215.78;;;6.86;63.71
21300;BME280;10809;49.476;11.016;2024-03-02T03:05:18;97211.47;;;6.85;63.67
21300;BME280;10809;49.476;11.016;2024-03-02T03:07:49;97211.47;;;6.85;63.80
21300;BME280;10809;49.476;11.016;2024-03-02T03:10:20;97213.25;;;6.85;63.70
21300;BME280;10809;49.476;11.016;2024-03-02T03:12:52;97218.50;;;6.85;63.57
21300;BME280;10809;49.476;11.016;2024-03-02T03:15:22;97216.81;;;6.84;63.70
21300;BME280;10809;49.476;11.016;2024-03-02T03:17:53;97212.41;;;6.84;63.88
21300;BME280;10809;49.476;11.016;2024-03-02T03:20:23;97215.06;;;6.84;63.89
21300;BME280;10809;49.476;11.016;2024-03-02T03:22:54;97215.88;;;6.85;63.90
21300;BME280;10809;49.476;11.016;2024-03-02T03:25:24;97214.09;;;6.85;64.21
21300;BME280;10809;49.476;11.016;2024-03-02T03:27:55;97220.22;;;6.86;64.06
21300;BME280;10809;49.476;11.016;2024-03-02T03:30:25;97222.84;;;6.86;64.07
21300;BME280;10809;49.476;11.016;2024-03-02T03:32:55;97222.84;;;6.86;64.24
21300;BME280;10809;49.476;11.016;2024-03-02T03:35:26;97220.22;;;6.86;64.09
21300;BME280;10809;49.476;11.016;2024-03-02T03:37:56;97215.78;;;6.86;64.24
21300;BME280;10809;49.476;11.016;2024-03-02T03:40:27;97217.59;;;6.86;64.14
21300;BME280;10809;49.476;11.016;2024-03-02T03:42:57;97217.59;;;6.86;64.15
21300;BME280;10809;49.476;11.016;2024-03-02T03:45:30;97228.03;;;6.87;63.90
21300;BME280;10809;49.476;11.016;2024-03-02T03:48:01;97225.41;;;6.87;64.15
21300;BME280;10809;49.476;11.016;2024-03-02T03:50:31;97222.75;;;6.87;64.06
21300;BME280;10809;49.476;11.016;2024-03-02T03:53:02;97219.19;;;6.88;64.13
21300;BME280;10809;49.476;11.016;2024-03-02T03:55:32;97221.91;;;6.87;64.15
21300;BME280;10809;49.476;11.016;2024-03-02T03:58:03;97226.22;;;6.88;64.10
21300;BME280;10809;49.476;11.016;2024-03-02T04:00:33;97215.78;;;6.86;64.23
21300;BME280;10809;49.476;11.016;2024-03-02T04:03:04;97216.72;;;6.85;64.03
21300;BME280;10809;49.476;11.016;2024-03-02T04:05:35;97213.34;;;6.83;64.15
21300;BME280;10809;49.476;11.016;2024-03-02T04:08:06;97212.59;;;6.81;64.40
21300;BME280;10809;49.476;11.016;2024-03-02T04:10:36;97208.34;;;6.79;64.12
21300;BME280;10809;49.476;11.016;2024-03-02T04:13:07;97211.06;;;6.77;64.24
21300;BME280;10809;49.476;11.016;2024-03-02T04:15:37;97222.63;;;6.75;63.94
21300;BME280;10809;49.476;11.016;2024-03-02T04:18:08;97220.06;;;6.73;64.14
21300;BME280;10809;49.476;11.016;2024-03-02T04:20:38;97217.63;;;6.70;64.26
21300;BME280;10809;49.476;11.016;2024-03-02T04:23:08;97215.91;;;6.69;64.03
21300;BME280;10809;49.476;11.016;2024-03-02T04:25:39;97220.53;;;6.66;64.29
21300;BME280;10809;49.476;11.016;2024-03-02T04:28:09;97226.78;;;6.63;64.21
21300;BME280;10809;49.476;11.016;2024-03-02T04:30:40;97223.41;;;6.61;64.21
21300;BME280;10809;49.476;11.016;2024-03-02T04:33:10;97227.03;;;6.59;64.22
21300;BME280;10809;49.476;11.016;2024-03-02T04:35:41;97235.03;;;6.57;64.30
21300;BME280;10809;49.476;11.016;2024-03-02T04:38:11;97231.66;;;6.55;64.22
21300;BME280;10809;49.476;11.016;2024-03-02T04:40:41;97234.38;;;6.54;64.29
21300;BME280;10809;49.476;11.016;2024-03-02T04:43:12;97238.84;;;6.52;64.23
21300;BME280;10809;49.476;11.016;2024-03-02T04:45:46;97232.00;;;6.49;64.32
21300;BME280;10809;49.476;11.016;2024-03-02T04:48:16;97236.41;;;6.49;64.25
21300;BME280;10809;49.476;11.016;2024-03-02T04:50:47;97235.63;;;6.47;64.35
21300;BME280;10809;49.476;11.016;2024-03-02T04:53:17;97234.88;;;6.45;64.27
21300;BME280;10809;49.476;11.016;2024-03-02T04:55:48;97237.59;;;6.43;64.41
21300;BME280;10809;49.476;11.016;2024-03-02T04:58:37;97238.59;;;6.41;64.08
21300;BME280;10809;49.476;11.016;2024-03-02T05:01:07;97244.81;;;6.40;64.17
21300;BME280;10809;49.476;11.016;2024-03-02T05:03:38;97240.50;;;6.39;64.22
21300;BME280;10809;49.476;11.016;2024-03-02T05:06:08;97244.88;;;6.38;64.39
21300;BME280;10809;49.476;11.016;2024-03-02T05:08:39;97246.75;;;6.36;64.28
21300;BME280;10809;49.476;11.016;2024-03-02T05:11:09;97250.31;;;6.35;64.25
21300;BME280;10809;49.476;11.016;2024-03-02T05:13:58;97242.59;;;6.32;64.37
21300;BME280;10809;49.476;11.016;2024-03-02T05:16:28;97243.53;;;6.31;64.52
21300;BME280;10809;49.476;11.016;2024-03-02T05:18:59;97242.78;;;6.29;64.54
21300;BME280;10809;49.476;11.016;2024-03-02T05:21:29;97255.06;;;6.29;64.46
21300;BME280;10809;49.476;11.016;2024-03-02T05:24:00;97246.44;;;6.27;64.51
21300;BME280;10809;49.476;11.016;2024-03-02T05:26:30;97249.16;;;6.25;64.63
21300;BME280;10809;49.476;11.016;2024-03-02T05:29:01;97243.03;;;6.25;64.55
21300;BME280;10809;49.476;11.016;2024-03-02T05:31:31;97249.28;;;6.22;64.57
21300;BME280;10809;49.476;11.016;2024-03-02T05:34:05;97247.59;;;6.21;64.63
21300;BME280;10809;49.476;11.016;2024-03-02T05:36:35;97246.81;;;6.19;64.66
21300;BME280;10809;49.476;11.016;2024-03-02T05:39:06;97253.88;;;6.19;64.69
21300;BME280;10809;49.476;11.016;2024-03-02T05:41:39;97253.97;;;6.17;64.96
21300;BME280;10809;49.476;11.016;2024-03-02T05:44:12;97254.88;;;6.16;64.65
21300;BME280;10809;49.476;11.016;2024-03-02T05:46:42;97259.31;;;6.16;64.67
21300;BME280;10809;49.476;11.016;2024-03-02T05:49:13;97253.28;;;6.14;64.70
21300;BME280;10809;49.476;11.016;2024-03-02T05:51:43;97256.00;;;6.12;64.63
21300;BME280;10809;49.476;11.016;2024-03-02T05:54:17;97266.50;;;6.12;64.59
21300;BME280;10809;49.476;11.016;2024-03-02T05:56:47;97262.28;;;6.10;64.89
21300;BME280;10809;49.476;11.016;2024-03-02T05:59:18;97264.03;;;6.09;64.69
21300;BME280;10809;49.476;11.016;2024-03-02T06:01:48;97265.88;;;6.07;64.79
21300;BME280;10809;49.476;11.016;2024-03-02T06:04:25;97263.34;;;6.05;64.87
21300;BME280;10809;49.476;11.016;2024-03-02T06:06:55;97258.16;;;6.04;64.89
21300;BME280;10809;49.476;11.016;2024-03-02T06:09:26;97256.50;;;6.03;64.97
21300;BME280;10809;49.476;11.016;2024-03-02T06:11:56;97260.97;;;6.01;65.01
21300;BME280;10809;49.476;11.016;2024-03-02T06:14:27;97261.91;;;6.00;64.82
21300;BME280;10809;49.476;11.016;2024-03-02T06:16:57;97257.59;;;5.99;64.83
21300;BME280;10809;49.476;11.016;2024-03-02T06:19:29;97263.75;;;5.98;65.07
21300;BME280;10809;49.476;11.016;2024-03-02T06:22:00;97256.81;;;5.97;65.16
21300;BME280;10809;49.476;11.016;2024-03-02T06:24:30;97258.59;;;5.96;64.99
21300;BME280;10809;49.476;11.016;2024-03-02T06:27:01;97268.28;;;5.96;65.10
21300;BME280;10809;49.476;11.016;2024-03-02T06:29:34;97273.53;;;5.96;65.08
21300;BME280;10809;49.476;11.016;2024-03-02T06:32:05;97268.28;;;5.96;65.22
21300;BME280;10809;49.476;11.016;2024-03-02T06:34:35;97276.16;;;5.96;65.10
21300;BME280;10809;49.476;11.016;2024-03-02T06:37:06;97269.09;;;5.96;64.95
21300;BME280;10809;49.476;11.016;2024-03-02T06:39:36;97269.09;;;5.96;64.83
21300;BME280;10809;49.476;11.016;2024-03-02T06:42:06;97260.38;;;5.96;65.23
21300;BME280;10809;49.476;11.016;2024-03-02T06:44:37;97261.13;;;5.98;65.29
21300;BME280;10809;49.476;11.016;2024-03-02T06:47:07;97262.06;;;5.97;65.21
21300;BME280;10809;49.476;11.016;2024-03-02T06:49:38;97267.25;;;5.98;65.25
21300;BME280;10809;49.476;11.016;2024-03-02T06:52:08;97265.47;;;5.99;65.15
21300;BME280;10809;49.476;11.016;2024-03-02T06:54:39;97262.84;;;5.99;65.46
21300;BME280;10809;49.476;11.016;2024-03-02T06:57:10;97257.44;;;6.02;65.63
21300;BME280;10809;49.476;11.016;2024-03-02T06:59:40;97264.28;;;6.04;65.68
21300;BME280;10809;49.476;11.016;2024-03-02T07:02:10;97263.25;;;6.07;65.67
21300;BME280;10809;49.476;11.016;2024-03-02T07:04:41;97271.84;;;6.11;65.82
21300;BME280;10809;49.476;11.016;2024-03-02T07:07:12;97262.03;;;6.14;65.81
21300;BME280;10809;49.476;11.016;2024-03-02T07:09:42;97267.84;;;6.19;66.12
21300;BME280;10809;49.476;11.016;2024-03-02T07:12:13;97264.91;;;6.25;66.17
21300;BME280;10809;49.476;11.016;2024-03-02T07:14:44;97263.72;;;6.31;66.33
21300;BME280;10809;49.476;11.016;2024-03-02T07:17:35;97273.72;;;6.40;66.64
21300;BME280;10809;49.476;11.016;2024-03-02T07:20:07;97277.59;;;6.48;66.78
21300;BME280;10809;49.476;11.016;2024-03-02T07:22:38;97276.25;;;6.57;66.81
21300;BME280;10809;49.476;11.016;2024-03-02T07:25:09;97265.22;;;6.66;66.91
21300;BME280;10809;49.476;11.016;2024-03-02T07:27:40;97282.16;;;6.76;66.91
21300;BME280;10809;49.476;11.016;2024-03-02T07:30:14;97284.97;;;6.88;67.42
21300;BME280;10809;49.476;11.016;2024-03-02T07:32:44;97276.34;;;7.00;67.41
21300;BME280;10809;49.476;11.016;2024-03-02T07:35:15;97270.41;;;7.12;67.28
21300;BME280;10809;49.476;11.016;2024-03-02T07:37:46;97276.81;;;7.22;66.88
21300;BME280;10809;49.476;11.016;2024-03-02T07:40:16;97281.56;;;7.31;66.85
21300;BME280;10809;49.476;11.016;2024-03-02T07:42:47;97286.38;;;7.39;66.46
21300;BME280;10809;49.476;11.016;2024-03-02T07:45:18;97282.53;;;7.44;66.61
21300;BME280;10809;49.476;11.016;2024-03-02T07:47:48;97279.63;;;7.49;66.25
21300;BME280;10809;49.476;11.016;2024-03-02T07:50:20;97273.22;;;7.53;66.28
21300;BME280;10809;49.476;11.016;2024-03-02T07:52:50;97282.75;;;7.55;66.25
21300;BME280;10809;49.476;11.016;2024-03-02T07:55:20;97279.94;;;7.58;66.27
21300;BME280;10809;49.476;11.016;2024-03-02T07:57:51;97282.47;;;7.60;66.07
21300;BME280;10809;49.476;11.016;2024-03-02T08:00:22;97280.56;;;7.62;66.09
21300;BME280;10809;49.476;11.016;2024-03-02T08:02:56;97282.28;;;7.63;65.92
21300;BME280;10809;49.476;11.016;2024-03-02T08:05:27;97282.19;;;7.64;66.15
21300;BME280;10809;49.476;11.016;2024-03-02T08:07:58;97284.75;;;7.66;65.95
21300;BME280;10809;49.476;11.016;2024-03-02T08:10:28;97296.00;;;7.68;65.88
21300;BME280;10809;49.476;11.016;2024-03-02T08:12:59;97293.28;;;7.69;65.77
21300;BME280;10809;49.476;11.016;2024-03-02T08:15:29;97292.28;;;7.72;65.99
21300;BME280;10809;49.476;11.016;2024-03-02T08:17:59;97288.59;;;7.74;65.94
21300;BME280;10809;49.476;11.016;2024-03-02T08:20:30;97291.91;;;7.78;66.15
21300;BME280;10809;49.476;11.016;2024-03-02T08:23:01;97294.53;;;7.78;66.01
21300;BME280;10809;49.476;11.016;2024-03-02T08:25:32;97290.84;;;7.80;65.81
21300;BME280;10809;49.476;11.016;2024-03-02T08:28:02;97294.25;;;7.82;66.04
21300;BME280;10809;49.476;11.016;2024-03-02T08:30:36;97287.03;;;7.86;65.91
21300;BME280;10809;49.476;11.016;2024-03-02T08:33:06;97289.38;;;7.91;66.40
21300;BME280;10809;49.476;11.016;2024-03-02T08:35:37;97294.38;;;7.95;66.52
21300;BME280;10809;49.476;11.016;2024-03-02T08:38:07;97290.50;;;8.01;66.42
21300;BME280;10809;49.476;11.016;2024-03-02T08:40:38;97294.44;;;8.08;66.63
21300;BME280;10809;49.476;11.016;2024-03-02T08:43:11;97285.94;;;8.17;67.08
21300;BME280;10809;49.476;11.016;2024-03-02T08:45:42;97295.72;;;8.29;67.30
21300;BME280;10809;49.476;11.016;2024-03-02T08:48:13;97292.25;;;8.42;67.73
21300;BME280;10809;49.476;11.016;2024-03-02T08:50:43;97283.47;;;8.56;67.18
21300;BME280;10809;49.476;11.016;2024-03-02T08:53:14;97288.63;;;8.71;67.44
21300;BME280;10809;49.476;11.016;2024-03-02T08:55:48;97290.41;;;8.85;67.38
21300;BME280;10809;49.476;11.016;2024-03-02T08:58:19;97295.06;;;8.94;66.96
21300;BME280;10809;49.476;11.016;2024-03-02T09:00:53;97291.72;;;9.04;66.87
21300;BME280;10809;49.476;11.016;2024-03-02T09:03:24;97295.66;;;9.11;66.24
21300;BME280;10809;49.476;11.016;2024-03-02T09:05:55;97289.97;;;9.17;66.31
21300;BME280;10809;49.476;11.016;2024-03-02T09:08:25;97297.47;;;9.23;65.65
21300;BME280;10809;49.476;11.016;2024-03-02T09:10:56;97294.53;;;9.28;65.72
21300;BME280;10809;49.476;11.016;2024-03-02T09:13:26;97298.66;;;9.32;65.58
21300;BME280;10809;49.476;11.016;2024-03-02T09:15:57;97290.72;;;9.32;65.24
21300;BME280;10809;49.476;11.016;2024-03-02T09:18:27;97289.69;;;9.34;65.49
21300;BME280;10809;49.476;11.016;2024-03-02T09:20:58;97286.94;;;9.36;65.38
21300;BME280;10809;49.476;11.016;2024-03-02T09:23:28;97287.81;;;9.36;65.13
21300;BME280;10809;49.476;11.016;2024-03-02T09:25:59;97286.75;;;9.39;65.27
21300;BME280;10809;49.476;11.016;2024-03-02T09:28:29;97278.81;;;9.39;64.80
21300;BME280;10809;49.476;11.016;2024-03-02T09:31:01;97284.09;;;9.39;65.12
21300;BME280;10809;49.476;11.016;2024-03-02T09:33:37;97282.22;;;9.41;64.66
21300;BME280;10809;49.476;11.016;2024-03-02T09:36:19;97280.50;;;9.40;64.89
21300;BME280;10809;49.476;11.016;2024-03-02T09:38:49;97283.91;;;9.42;64.54
21300;BME280;10809;49.476;11.016;2024-03-02T09:41:20;97281.16;;;9.43;64.61
21300;BME280;10809;49.476;11.016;2024-03-02T09:43:51;97289.84;;;9.45;64.42
21300;BME280;10809;49.476;11.016;2024-03-02T09:46:22;97287.09;;;9.47;64.36
21300;BME280;10809;49.476;11.016;2024-03-02T09:48:55;97285.06;;;9.50;64.93
21300;BME280;10809;49.476;11.016;2024-03-02T09:51:26;97290.03;;;9.55;64.62
21300;BME280;10809;49.476;11.016;2024-03-02T09:53:56;97284.53;;;9.58;64.94
21300;BME280;10809;49.476;11.016;2024-03-02T09:56:27;97279.81;;;9.63;64.93
21300;BME280;10809;49.476;11.016;2024-03-02T09:58:58;97282.03;;;9.69;64.77
21300;BME280;10809;49.476;11.016;2024-03-02T10:01:28;97278.09;;;9.75;64.69
21300;BME280;10809;49.476;11.016;2024-03-02T10:03:59;97278.66;;;9.80;64.80
21300;BME280;10809;49.476;11.016;2024-03-02T10:06:30;97275.56;;;9.86;64.80
21300;BME280;10809;49.476;11.016;2024-03-02T10:09:00;97275.16;;;9.92;64.80
21300;BME280;10809;49.476;11.016;2024-03-02T10:11:32;97272.19;;;9.96;64.35
21300;BME280;10809;49.476;11.016;2024-03-02T10:16:42;97278.69;;;10.05;64.63
21300;BME280;10809;49.476;11.016;2024-03-02T10:19:22;97272.09;;;10.10;64.17
21300;BME280;10809;49.476;11.016;2024-03-02T10:21:54;97271.78;;;10.15;64.25
21300;BME280;10809;49.476;11.016;2024-03-02T10:24:25;97271.56;;;10.18;64.44
21300;BME280;10809;49.476;11.016;2024-03-02T10:26:55;97272.00;;;10.24;64.15
21300;BME280;10809;49.476;11.016;2024-03-02T10:29:29;97267.31;;;10.28;64.15
21300;BME280;10809;49.476;11.016;2024-03-02T10:32:02;97262.53;;;10.33;63.81
21300;BME280;10809;49.476;11.016;2024-03-02T10:34:32;97261.28;;;10.38;64.02
21300;BME280;10809;49.476;11.016;2024-03-02T10:37:03;97263.50;;;10.44;64.33
21300;BME280;10809;49.476;11.016;2024-03-02T10:39:37;97254.25;;;10.50;64.22
21300;BME280;10809;49.476;11.016;2024-03-02T10:42:09;97253.81;;;10.56;63.50
21300;BME280;10809;49.476;11.016;2024-03-02T10:44:41;97253.38;;;10.62;63.77
21300;BME280;10809;49.476;11.016;2024-03-02T10:47:13;97257.34;;;10.67;63.71
21300;BME280;10809;49.476;11.016;2024-03-02T10:49:46;97254.16;;;10.75;63.57
21300;BME280;10809;49.476;11.016;2024-03-02T10:52:17;97244.19;;;10.78;63.69
21300;BME280;10809;49.476;11.016;2024-03-02T10:54:48;97247.13;;;10.86;63.65
21300;BME280;10809;49.476;11.016;2024-03-02T10:57:21;97236.09;;;10.92;63.35
21300;BME280;10809;49.476;11.016;2024-03-02T10:59:56;97240.19;;;10.96;63.59
21300;BME280;10809;49.476;11.016;2024-03-02T11:02:30;97241.44;;;11.03;63.20
21300;BME280;10809;49.476;11.016;2024-03-02T11:05:04;97235.81;;;11.08;63.08
21300;BME280;10809;49.476;11.016;2024-03-02T11:07:38;97230.28;;;11.11;63.21
21300;BME280;10809;49.476;11.016;2024-03-02T11:10:09;97230.88;;;11.14;62.70
21300;BME280;10809;49.476;11.016;2024-03-02T11:12:49;97227.03;;;11.18;62.39
21300;BME280;10809;49.476;11.016;2024-03-02T11:15:24;97228.72;;;11.19;62.45
21300;BME280;10809;49.476;11.016;2024-03-02T11:17:56;97225.09;;;11.20;62.42
21300;BME280;10809;49.476;11.016;2024-03-02T11:20:28;97224.16;;;11.21;62.35
21300;BME280;10809;49.476;11.016;2024-03-02T11:23:08;97217.91;;;11.22;62.02
21300;BME280;10809;49.476;11.016;2024-03-02T11:25:38;97218.75;;;11.23;61.92
21300;BME280;10809;49.476;11.016;2024-03-02T11:28:09;97218.66;;;11.24;61.97
21300;BME280;10809;49.476;11.016;2024-03-02T11:33:12;97221.31;;;11.24;61.92
21300;BME280;10809;49.476;11.016;2024-03-02T11:35:44;97215.03;;;11.25;61.86
21300;BME280;10809;49.476;11.016;2024-03-02T11:38:18;97214.06;;;11.26;61.59
21300;BME280;10809;49.476;11.016;2024-03-02T11:40:49;97215.78;;;11.27;61.95
21300;BME280;10809;49.476;11.016;2024-03-02T11:43:20;97213.84;;;11.29;61.83
21300;BME280;10809;49.476;11.016;2024-03-02T11:45:57;97218.09;;;11.32;61.91
21300;BME280;10809;49.476;11.016;2024-03-02T11:48:29;97209.91;;;11.35;61.89
21300;BME280;10809;49.476;11.016;2024-03-02T11:51:00;97209.56;;;11.40;62.06
21300;BME280;10809;49.476;11.016;2024-03-02T11:53:31;97213.66;;;11.44;61.64
21300;BME280;10809;49.476;11.016;2024-03-02T11:56:09;97200.16;;;11.47;61.47
21300;BME280;10809;49.476;11.016;2024-03-02T11:58:40;97208.63;;;11.52;61.67
21300;BME280;10809;49.476;11.016;2024-03-02T12:01:11;97193.31;;;11.55;61.64
21300;BME280;10809;49.476;11.016;2024-03-02T12:03:43;97195.75;;;11.58;61.36
21300;BME280;10809;49.476;11.016;2024-03-02T12:06:14;97198.97;;;11.62;61.30
21300;BME280;10809;49.476;11.016;2024-03-02T12:08:45;97191.75;;;11.64;61.11
21300;BME280;10809;49.476;11.016;2024-03-02T12:11:16;97187.06;;;11.67;61.26
21300;BME280;10809;49.476;11.016;2024-03-02T12:13:54;97178.88;;;11.70;61.29
21300;BME280;10809;49.476;11.016;2024-03-02T12:16:30;97182.97;;;11.74;61.12
21300;BME280;10809;49.476;11.016;2024-03-02T12:19:00;97181.88;;;11.77;60.62
21300;BME280;10809;49.476;11.016;2024-03-02T12:21:31;97174.66;;;11.79;60.88
21300;BME280;10809;49.476;11.016;2024-03-02T12:24:02;97180.56;;;11.82;60.67
21300;BME280;10809;49.476;11.016;2024-03-02T12:26:32;97176.81;;;11.85;60.55
21300;BME280;10809;49.476;11.016;2024-03-02T12:29:03;97174.16;;;11.85;60.25
21300;BME280;10809;49.476;11.016;2024-03-02T12:31:34;97174.06;;;11.86;60.35
21300;BME280;10809;49.476;11.016;2024-03-02T12:34:05;97169.59;;;11.87;60.42
21300;BME280;10809;49.476;11.016;2024-03-02T12:36:39;97169.47;;;11.88;60.23
21300;BME280;10809;49.476;11.016;2024-03-02T12:39:16;97165.00;;;11.89;60.15
21300;BME280;10809;49.476;11.016;2024-03-02T12:41:53;97158.75;;;11.90;60.10
21300;BME280;10809;49.476;11.016;2024-03-02T12:44:24;97157.78;;;11.91;60.08
21300;BME280;10809;49.476;11.016;2024-03-02T12:46:54;97147.16;;;11.91;60.16
21300;BME280;10809;49.476;11.016;2024-03-02T12:49:25;97146.22;;;11.92;60.07
21300;BME280;10809;49.476;11.016;2024-03-02T12:51:56;97153.06;;;11.94;60.16
21300;BME280;10809;49.476;11.016;2024-03-02T12:54:27;97141.63;;;11.94;59.95
21300;BME280;10809;49.476;11.016;2024-03-02T12:57:02;97147.53;;;11.97;60.05
21300;BME280;10809;49.476;11.016;2024-03-02T12:59:32;97139.44;;;11.99;59.77
21300;BME280;10809;49.476;11.016;2024-03-02T13:02:02;97142.72;;;12.02;59.82
21300;BME280;10809;49.476;11.016;2024-03-02T13:04:36;97137.16;;;12.05;59.87
21300;BME280;10809;49.476;11.016;2024-03-02T13:07:07;97134.13;;;12.10;59.79
21300;BME280;10809;49.476;11.016;2024-03-02T13:09:37;97132.91;;;12.14;59.74
21300;BME280;10809;49.476;11.016;2024-03-02T13:12:08;97131.56;;;12.19;59.91
21300;BME280;10809;49.476;11.016;2024-03-02T13:14:38;97130.13;;;12.26;59.98
21300;BME280;10809;49.476;11.016;2024-03-02T13:17:09;97130.31;;;12.34;60.06
21300;BME280;10809;49.476;11.016;2024-03-02T13:19:58;97118.28;;;12.41;59.93
21300;BME280;10809;49.476;11.016;2024-03-02T13:22:28;97128.28;;;12.49;59.84
21300;BME280;10809;49.476;11.016;2024-03-02T13:24:59;97119.81;;;12.55;59.71
21300;BME280;10809;49.476;11.016;2024-03-02T13:27:31;97121.09;;;12.60;59.46